METAR Data
IDs: Format: Raw Decoded Include TAF

Data at: 0154 UTC 10 Dec 2022

METAR for:KOSU (Columbus/Ohio State, OH, US)
Text:KOSU 100053Z 02007KT 6SM BR OVC031 06/04 A3014 RMK AO2 RAE47 SLP214 P0000 T00610039
Temperature: 6.1°C ( 43°F)
Dewpoint: 3.9°C ( 39°F) [RH = 86%]
Pressure (altimeter):30.14 inches Hg (1020.7 mb) [Sea level pressure: 1021.4 mb]
Winds:from the NNE (20 degrees) at 8 MPH (7 knots; 3.6 m/s)
Visibility: 6 sm ( 10 km)
Ceiling:3100 feet AGL
Clouds: overcast cloud deck at 3100 feet AGL
Weather:BR (mist)